sensor_id;sensor_type;location;lat;lon;timestamp;temperature;humidity
9482;DHT22;4779;48.062;11.672;2023-06-04T00:02:27;15.70;94.90
9482;DHT22;4779;48.062;11.672;2023-06-04T00:04:54;15.60;95.20
9482;DHT22;4779;48.062;11.672;2023-06-04T00:07:21;15.60;94.80
9482;DHT22;4779;48.062;11.672;2023-06-04T00:09:48;15.60;95.00
9482;DHT22;4779;48.062;11.672;2023-06-04T00:12:15;15.50;95.10
9482;DHT22;4779;48.062;11.672;2023-06-04T00:14:42;15.50;95.10
9482;DHT22;4779;48.062;11.672;2023-06-04T00:17:10;15.40;95.00
9482;DHT22;4779;48.062;11.672;2023-06-04T00:19:39;15.50;95.00
9482;DHT22;4779;48.062;11.672;2023-06-04T00:22:06;15.40;94.90
9482;DHT22;4779;48.062;11.672;2023-06-04T00:24:34;15.30;94.90
9482;DHT22;4779;48.062;11.672;2023-06-04T00:27:01;15.30;94.90
9482;DHT22;4779;48.062;11.672;2023-06-04T00:29:27;15.30;95.00
9482;DHT22;4779;48.062;11.672;2023-06-04T00:31:54;15.20;95.00
9482;DHT22;4779;48.062;11.672;2023-06-04T00:34:21;15.30;95.30
9482;DHT22;4779;48.062;11.672;2023-06-04T00:36:49;15.20;94.80
9482;DHT22;4779;48.062;11.672;2023-06-04T00:39:16;15.20;95.20
9482;DHT22;4779;48.062;11.672;2023-06-04T00:41:43;15.10;94.50
9482;DHT22;4779;48.062;11.672;2023-06-04T00:44:10;15.10;94.70
9482;DHT22;4779;48.062;11.672;2023-06-04T00:46:37;15.10;93.70
9482;DHT22;4779;48.062;11.672;2023-06-04T00:49:05;15.20;94.00
9482;DHT22;4779;48.062;11.672;2023-06-04T00:51:32;15.10;94.10
9482;DHT22;4779;48.062;11.672;2023-06-04T00:54:02;15.00;94.20
9482;DHT22;4779;48.062;11.672;2023-06-04T00:56:34;15.00;94.20
9482;DHT22;4779;48.062;11.672;2023-06-04T00:59:03;15.00;94.20
9482;DHT22;4779;48.062;11.672;2023-06-04T01:01:37;15.00;94.20
9482;DHT22;4779;48.062;11.672;2023-06-04T01:04:11;14.90;94.30
9482;DHT22;4779;48.062;11.672;2023-06-04T01:06:42;14.80;94.20
9482;DHT22;4779;48.062;11.672;2023-06-04T01:09:11;14.70;94.30
9482;DHT22;4779;48.062;11.672;2023-06-04T01:11:39;14.80;94.60
9482;DHT22;4779;48.062;11.672;2023-06-04T01:14:07;14.70;94.60
9482;DHT22;4779;48.062;11.672;2023-06-04T01:16:38;14.70;94.70
9482;DHT22;4779;48.062;11.672;2023-06-04T01:19:14;14.70;94.70
9482;DHT22;4779;48.062;11.672;2023-06-04T01:21:48;14.70;94.50
9482;DHT22;4779;48.062;11.672;2023-06-04T01:24:21;14.60;94.40
9482;DHT22;4779;48.062;11.672;2023-06-04T01:26:52;14.50;94.50
9482;DHT22;4779;48.062;11.672;2023-06-04T01:29:21;14.50;94.40
9482;DHT22;4779;48.062;11.672;2023-06-04T01:31:49;14.50;94.10
9482;DHT22;4779;48.062;11.672;2023-06-04T01:34:18;14.50;94.60
9482;DHT22;4779;48.062;11.672;2023-06-04T01:36:45;14.50;94.30
9482;DHT22;4779;48.062;11.672;2023-06-04T01:39:12;14.40;94.40
9482;DHT22;4779;48.062;11.672;2023-06-04T01:41:40;14.30;94.30
9482;DHT22;4779;48.062;11.672;2023-06-04T01:44:07;14.30;94.60
9482;DHT22;4779;48.062;11.672;2023-06-04T01:46:34;14.30;94.80
9482;DHT22;4779;48.062;11.672;2023-06-04T01:49:01;14.30;94.80
9482;DHT22;4779;48.062;11.672;2023-06-04T01:51:28;14.30;94.70
9482;DHT22;4779;48.062;11.672;2023-06-04T01:53:54;14.20;94.70
9482;DHT22;4779;48.062;11.672;2023-06-04T01:56:21;14.20;94.80
9482;DHT22;4779;48.062;11.672;2023-06-04T01:58:50;14.20;94.80
9482;DHT22;4779;48.062;11.672;2023-06-04T02:01:17;14.20;94.80
9482;DHT22;4779;48.062;11.672;2023-06-04T02:03:45;14.10;94.90
9482;DHT22;4779;48.062;11.672;2023-06-04T02:06:12;14.10;95.00
9482;DHT22;4779;48.062;11.672;2023-06-04T02:08:39;14.00;95.00
9482;DHT22;4779;48.062;11.672;2023-06-04T02:11:07;14.00;94.80
9482;DHT22;4779;48.062;11.672;2023-06-04T02:13:34;13.90;94.90
9482;DHT22;4779;48.062;11.672;2023-06-04T02:16:03;13.90;95.00
9482;DHT22;4779;48.062;11.672;2023-06-04T02:18:30;13.90;95.30
9482;DHT22;4779;48.062;11.672;2023-06-04T02:20:57;13.90;95.40
9482;DHT22;4779;48.062;11.672;2023-06-04T02:23:24;13.90;95.20
9482;DHT22;4779;48.062;11.672;2023-06-04T02:25:51;13.80;94.70
9482;DHT22;4779;48.062;11.672;2023-06-04T02:28:17;13.70;95.20
9482;DHT22;4779;48.062;11.672;2023-06-04T02:30:45;13.70;95.30
9482;DHT22;4779;48.062;11.672;2023-06-04T02:33:14;13.70;95.50
9482;DHT22;4779;48.062;11.672;2023-06-04T02:35:40;13.70;95.50
9482;DHT22;4779;48.062;11.672;2023-06-04T02:38:07;13.70;95.30
9482;DHT22;4779;48.062;11.672;2023-06-04T02:40:34;13.70;95.40
9482;DHT22;4779;48.062;11.672;2023-06-04T02:43:01;13.70;95.50
9482;DHT22;4779;48.062;11.672;2023-06-04T02:45:28;13.60;95.30
9482;DHT22;4779;48.062;11.672;2023-06-04T02:47:55;13.50;95.60
9482;DHT22;4779;48.062;11.672;2023-06-04T02:50:23;13.60;95.70
9482;DHT22;4779;48.062;11.672;2023-06-04T02:52:50;13.60;95.70
9482;DHT22;4779;48.062;11.672;2023-06-04T02:55:17;13.60;95.60
9482;DHT22;4779;48.062;11.672;2023-06-04T02:57:44;13.50;95.60
9482;DHT22;4779;48.062;11.672;2023-06-04T03:00:12;13.50;95.70
9482;DHT22;4779;48.062;11.672;2023-06-04T03:02:41;13.40;95.70
9482;DHT22;4779;48.062;11.672;2023-06-04T03:05:09;13.40;95.80
9482;DHT22;4779;48.062;11.672;2023-06-04T03:07:40;13.40;95.90
9482;DHT22;4779;48.062;11.672;2023-06-04T03:10:08;13.30;95.90
9482;DHT22;4779;48.062;11.672;2023-06-04T03:12:36;13.30;95.90
9482;DHT22;4779;48.062;11.672;2023-06-04T03:15:03;13.40;96.00
9482;DHT22;4779;48.062;11.672;2023-06-04T03:17:31;13.40;95.90
9482;DHT22;4779;48.062;11.672;2023-06-04T03:19:58;13.30;95.90
9482;DHT22;4779;48.062;11.672;2023-06-04T03:22:24;13.30;95.80
9482;DHT22;4779;48.062;11.672;2023-06-04T03:24:53;13.30;95.90
9482;DHT22;4779;48.062;11.672;2023-06-04T03:27:19;13.30;96.10
9482;DHT22;4779;48.062;11.672;2023-06-04T03:29:46;13.20;96.10
9482;DHT22;4779;48.062;11.672;2023-06-04T03:32:13;13.30;96.50
9482;DHT22;4779;48.062;11.672;2023-06-04T03:34:41;13.30;96.00
9482;DHT22;4779;48.062;11.672;2023-06-04T03:37:08;13.20;95.90
9482;DHT22;4779;48.062;11.672;2023-06-04T03:39:35;13.20;96.00
9482;DHT22;4779;48.062;11.672;2023-06-04T03:42:04;13.20;96.10
9482;DHT22;4779;48.062;11.672;2023-06-04T03:44:31;13.20;96.20
9482;DHT22;4779;48.062;11.672;2023-06-04T03:46:58;13.10;96.10
9482;DHT22;4779;48.062;11.672;2023-06-04T03:49:25;13.20;96.20
9482;DHT22;4779;48.062;11.672;2023-06-04T03:51:52;13.20;96.30
9482;DHT22;4779;48.062;11.672;2023-06-04T03:54:18;13.20;96.30
9482;DHT22;4779;48.062;11.672;2023-06-04T03:56:46;13.20;96.40
9482;DHT22;4779;48.062;11.672;2023-06-04T03:59:15;13.20;96.50
9482;DHT22;4779;48.062;11.672;2023-06-04T04:01:42;13.20;96.50
9482;DHT22;4779;48.062;11.672;2023-06-04T04:04:09;13.20;96.50
9482;DHT22;4779;48.062;11.672;2023-06-04T04:06:36;13.30;96.70
9482;DHT22;4779;48.062;11.672;2023-06-04T04:09:03;13.30;96.70
9482;DHT22;4779;48.062;11.672;2023-06-04T04:11:31;13.30;96.70
9482;DHT22;4779;48.062;11.672;2023-06-04T04:13:58;13.30;96.70
9482;DHT22;4779;48.062;11.672;2023-06-04T04:16:27;13.30;96.70
9482;DHT22;4779;48.062;11.672;2023-06-04T04:18:54;13.40;96.70
9482;DHT22;4779;48.062;11.672;2023-06-04T04:21:21;13.40;97.00
9482;DHT22;4779;48.062;11.672;2023-06-04T04:23:49;13.40;97.10
9482;DHT22;4779;48.062;11.672;2023-06-04T04:26:17;13.40;97.00
9482;DHT22;4779;48.062;11.672;2023-06-04T04:28:43;13.30;97.30
9482;DHT22;4779;48.062;11.672;2023-06-04T04:31:11;13.30;97.20
9482;DHT22;4779;48.062;11.672;2023-06-04T04:33:39;13.40;97.20
9482;DHT22;4779;48.062;11.672;2023-06-04T04:36:06;13.60;96.70
9482;DHT22;4779;48.062;11.672;2023-06-04T04:38:38;13.70;96.90
9482;DHT22;4779;48.062;11.672;2023-06-04T04:41:05;13.80;96.10
9482;DHT22;4779;48.062;11.672;2023-06-04T04:43:33;13.60;96.00
9482;DHT22;4779;48.062;11.672;2023-06-04T04:46:00;13.40;96.60
9482;DHT22;4779;48.062;11.672;2023-06-04T04:48:27;13.50;96.50
9482;DHT22;4779;48.062;11.672;2023-06-04T04:50:56;13.60;96.60
9482;DHT22;4779;48.062;11.672;2023-06-04T04:53:23;13.80;96.10
9482;DHT22;4779;48.062;11.672;2023-06-04T04:55:50;13.90;96.10
9482;DHT22;4779;48.062;11.672;2023-06-04T04:58:17;14.20;96.60
9482;DHT22;4779;48.062;11.672;2023-06-04T05:00:44;14.40;97.50
9482;DHT22;4779;48.062;11.672;2023-06-04T05:03:11;14.60;96.60
9482;DHT22;4779;48.062;11.672;2023-06-04T05:05:38;14.70;96.30
9482;DHT22;4779;48.062;11.672;2023-06-04T05:08:06;14.70;96.20
9482;DHT22;4779;48.062;11.672;2023-06-04T05:10:33;14.90;95.80
9482;DHT22;4779;48.062;11.672;2023-06-04T05:13:01;15.00;95.50
9482;DHT22;4779;48.062;11.672;2023-06-04T05:15:30;15.10;94.70
9482;DHT22;4779;48.062;11.672;2023-06-04T05:17:57;15.20;93.70
9482;DHT22;4779;48.062;11.672;2023-06-04T05:20:26;15.40;94.40
9482;DHT22;4779;48.062;11.672;2023-06-04T05:22:53;15.40;94.50
9482;DHT22;4779;48.062;11.672;2023-06-04T05:25:22;15.40;93.80
9482;DHT22;4779;48.062;11.672;2023-06-04T05:27:49;15.40;93.70
9482;DHT22;4779;48.062;11.672;2023-06-04T05:30:16;15.50;93.20
9482;DHT22;4779;48.062;11.672;2023-06-04T05:32:43;15.50;92.40
9482;DHT22;4779;48.062;11.672;2023-06-04T05:35:10;15.50;92.20
9482;DHT22;4779;48.062;11.672;2023-06-04T05:37:37;15.50;91.70
9482;DHT22;4779;48.062;11.672;2023-06-04T05:40:07;15.50;90.60
9482;DHT22;4779;48.062;11.672;2023-06-04T05:42:36;15.50;91.70
9482;DHT22;4779;48.062;11.672;2023-06-04T05:45:03;15.70;91.40
9482;DHT22;4779;48.062;11.672;2023-06-04T05:47:30;15.70;90.90
9482;DHT22;4779;48.062;11.672;2023-06-04T05:49:57;15.90;90.50
9482;DHT22;4779;48.062;11.672;2023-06-04T05:52:25;16.00;90.40
9482;DHT22;4779;48.062;11.672;2023-06-04T05:54:51;16.10;90.80
9482;DHT22;4779;48.062;11.672;2023-06-04T05:57:19;16.20;90.50
9482;DHT22;4779;48.062;11.672;2023-06-04T05:59:47;16.20;90.40
9482;DHT22;4779;48.062;11.672;2023-06-04T06:02:14;16.30;91.00
9482;DHT22;4779;48.062;11.672;2023-06-04T06:04:41;16.50;90.50
9482;DHT22;4779;48.062;11.672;2023-06-04T06:07:08;16.50;90.20
9482;DHT22;4779;48.062;11.672;2023-06-04T06:09:35;16.60;90.90
9482;DHT22;4779;48.062;11.672;2023-06-04T06:12:02;16.70;90.70
9482;DHT22;4779;48.062;11.672;2023-06-04T06:14:31;16.90;90.00
9482;DHT22;4779;48.062;11.672;2023-06-04T06:16:59;17.00;90.30
9482;DHT22;4779;48.062;11.672;2023-06-04T06:19:28;17.10;90.20
9482;DHT22;4779;48.062;11.672;2023-06-04T06:21:55;17.20;90.00
9482;DHT22;4779;48.062;11.672;2023-06-04T06:24:24;17.40;89.40
9482;DHT22;4779;48.062;11.672;2023-06-04T06:26:50;17.30;89.90
9482;DHT22;4779;48.062;11.672;2023-06-04T06:29:17;17.30;89.30
9482;DHT22;4779;48.062;11.672;2023-06-04T06:31:44;17.50;89.40
9482;DHT22;4779;48.062;11.672;2023-06-04T06:34:12;17.70;89.40
9482;DHT22;4779;48.062;11.672;2023-06-04T06:36:39;17.80;90.00
9482;DHT22;4779;48.062;11.672;2023-06-04T06:39:07;17.90;88.60
9482;DHT22;4779;48.062;11.672;2023-06-04T06:41:34;17.90;86.80
9482;DHT22;4779;48.062;11.672;2023-06-04T06:44:01;18.10;88.90
9482;DHT22;4779;48.062;11.672;2023-06-04T06:46:28;18.20;87.70
9482;DHT22;4779;48.062;11.672;2023-06-04T06:48:55;18.40;87.90
9482;DHT22;4779;48.062;11.672;2023-06-04T06:51:23;18.50;87.00
9482;DHT22;4779;48.062;11.672;2023-06-04T06:53:50;18.70;88.10
9482;DHT22;4779;48.062;11.672;2023-06-04T06:56:17;18.80;90.20
9482;DHT22;4779;48.062;11.672;2023-06-04T06:58:44;19.00;88.20
9482;DHT22;4779;48.062;11.672;2023-06-04T07:01:12;19.00;85.10
9482;DHT22;4779;48.062;11.672;2023-06-04T07:03:39;19.00;89.10
9482;DHT22;4779;48.062;11.672;2023-06-04T07:06:06;19.10;86.60
9482;DHT22;4779;48.062;11.672;2023-06-04T07:08:34;19.20;84.70
9482;DHT22;4779;48.062;11.672;2023-06-04T07:11:02;19.20;87.10
9482;DHT22;4779;48.062;11.672;2023-06-04T07:13:29;19.30;87.50
9482;DHT22;4779;48.062;11.672;2023-06-04T07:15:57;19.50;87.10
9482;DHT22;4779;48.062;11.672;2023-06-04T07:18:24;19.60;88.50
9482;DHT22;4779;48.062;11.672;2023-06-04T07:20:51;19.60;86.70
9482;DHT22;4779;48.062;11.672;2023-06-04T07:23:18;19.50;86.90
9482;DHT22;4779;48.062;11.672;2023-06-04T07:25:46;19.70;87.40
9482;DHT22;4779;48.062;11.672;2023-06-04T07:28:13;19.70;87.50
9482;DHT22;4779;48.062;11.672;2023-06-04T07:30:40;19.80;86.90
9482;DHT22;4779;48.062;11.672;2023-06-04T07:33:08;19.90;88.90
9482;DHT22;4779;48.062;11.672;2023-06-04T07:35:35;20.10;88.90
9482;DHT22;4779;48.062;11.672;2023-06-04T07:38:02;20.30;89.70
9482;DHT22;4779;48.062;11.672;2023-06-04T07:40:29;20.40;88.90
9482;DHT22;4779;48.062;11.672;2023-06-04T07:42:57;20.50;87.10
9482;DHT22;4779;48.062;11.672;2023-06-04T07:45:24;20.50;87.30
9482;DHT22;4779;48.062;11.672;2023-06-04T07:47:51;20.60;86.70
9482;DHT22;4779;48.062;11.672;2023-06-04T07:50:17;20.70;88.80
9482;DHT22;4779;48.062;11.672;2023-06-04T07:52:44;20.70;86.30
9482;DHT22;4779;48.062;11.672;2023-06-04T07:55:11;20.80;88.00
9482;DHT22;4779;48.062;11.672;2023-06-04T07:57:38;21.00;88.50
9482;DHT22;4779;48.062;11.672;2023-06-04T08:00:08;21.10;89.00
9482;DHT22;4779;48.062;11.672;2023-06-04T08:02:36;21.20;85.00
9482;DHT22;4779;48.062;11.672;2023-06-04T08:05:04;21.20;86.70
9482;DHT22;4779;48.062;11.672;2023-06-04T08:07:31;21.20;84.50
9482;DHT22;4779;48.062;11.672;2023-06-04T08:09:57;21.20;85.10
9482;DHT22;4779;48.062;11.672;2023-06-04T08:12:24;21.20;82.90
9482;DHT22;4779;48.062;11.672;2023-06-04T08:14:51;21.30;83.20
9482;DHT22;4779;48.062;11.672;2023-06-04T08:17:23;21.40;83.30
9482;DHT22;4779;48.062;11.672;2023-06-04T08:19:50;21.60;82.70
9482;DHT22;4779;48.062;11.672;2023-06-04T08:22:17;21.60;81.60
9482;DHT22;4779;48.062;11.672;2023-06-04T08:24:44;21.80;82.50
9482;DHT22;4779;48.062;11.672;2023-06-04T08:27:11;21.90;82.50
9482;DHT22;4779;48.062;11.672;2023-06-04T08:29:38;22.10;82.30
9482;DHT22;4779;48.062;11.672;2023-06-04T08:32:06;22.30;79.80
9482;DHT22;4779;48.062;11.672;2023-06-04T08:34:35;22.30;77.50
9482;DHT22;4779;48.062;11.672;2023-06-04T08:37:02;22.40;79.70
9482;DHT22;4779;48.062;11.672;2023-06-04T08:39:29;22.60;80.30
9482;DHT22;4779;48.062;11.672;2023-06-04T08:41:59;22.70;79.90
9482;DHT22;4779;48.062;11.672;2023-06-04T08:44:27;22.90;77.70
9482;DHT22;4779;48.062;11.672;2023-06-04T08:47:02;23.10;77.50
9482;DHT22;4779;48.062;11.672;2023-06-04T08:49:33;23.30;75.30
9482;DHT22;4779;48.062;11.672;2023-06-04T08:52:02;23.30;73.00
9482;DHT22;4779;48.062;11.672;2023-06-04T08:54:29;23.30;71.50
9482;DHT22;4779;48.062;11.672;2023-06-04T08:56:56;23.50;73.40
9482;DHT22;4779;48.062;11.672;2023-06-04T08:59:24;23.70;72.60
9482;DHT22;4779;48.062;11.672;2023-06-04T09:01:52;24.00;73.20
9482;DHT22;4779;48.062;11.672;2023-06-04T09:04:20;24.10;67.90
9482;DHT22;4779;48.062;11.672;2023-06-04T09:06:47;24.10;69.90
9482;DHT22;4779;48.062;11.672;2023-06-04T09:09:17;24.20;67.30
9482;DHT22;4779;48.062;11.672;2023-06-04T09:11:50;24.40;68.90
9482;DHT22;4779;48.062;11.672;2023-06-04T09:14:17;24.60;71.30
9482;DHT22;4779;48.062;11.672;2023-06-04T09:16:45;24.70;65.30
9482;DHT22;4779;48.062;11.672;2023-06-04T09:19:12;24.80;68.40
9482;DHT22;4779;48.062;11.672;2023-06-04T09:21:47;24.80;65.60
9482;DHT22;4779;48.062;11.672;2023-06-04T09:24:16;25.00;68.90
9482;DHT22;4779;48.062;11.672;2023-06-04T09:26:43;25.20;66.60
9482;DHT22;4779;48.062;11.672;2023-06-04T09:29:10;25.40;65.40
9482;DHT22;4779;48.062;11.672;2023-06-04T09:31:37;25.50;65.50
9482;DHT22;4779;48.062;11.672;2023-06-04T09:34:05;25.60;64.90
9482;DHT22;4779;48.062;11.672;2023-06-04T09:36:32;25.90;64.80
9482;DHT22;4779;48.062;11.672;2023-06-04T09:39:00;26.20;64.20
9482;DHT22;4779;48.062;11.672;2023-06-04T09:41:29;26.40;61.60
9482;DHT22;4779;48.062;11.672;2023-06-04T09:44:00;26.40;59.70
9482;DHT22;4779;48.062;11.672;2023-06-04T09:46:28;26.50;60.80
9482;DHT22;4779;48.062;11.672;2023-06-04T09:49:00;26.50;62.90
9482;DHT22;4779;48.062;11.672;2023-06-04T09:51:28;26.50;61.30
9482;DHT22;4779;48.062;11.672;2023-06-04T09:53:56;26.60;60.90
9482;DHT22;4779;48.062;11.672;2023-06-04T09:56:23;26.60;63.70
9482;DHT22;4779;48.062;11.672;2023-06-04T09:58:58;26.60;59.00
9482;DHT22;4779;48.062;11.672;2023-06-04T10:01:27;26.50;58.00
9482;DHT22;4779;48.062;11.672;2023-06-04T10:03:56;26.60;62.30
9482;DHT22;4779;48.062;11.672;2023-06-04T10:06:25;26.80;60.90
9482;DHT22;4779;48.062;11.672;2023-06-04T10:08:55;27.10;61.90
9482;DHT22;4779;48.062;11.672;2023-06-04T10:11:26;27.40;62.10
9482;DHT22;4779;48.062;11.672;2023-06-04T10:14:02;27.30;60.70
9482;DHT22;4779;48.062;11.672;2023-06-04T10:16:30;27.30;58.80
9482;DHT22;4779;48.062;11.672;2023-06-04T10:18:59;27.50;60.10
9482;DHT22;4779;48.062;11.672;2023-06-04T10:21:27;27.40;56.90
9482;DHT22;4779;48.062;11.672;2023-06-04T10:23:57;27.40;57.30
9482;DHT22;4779;48.062;11.672;2023-06-04T10:26:25;27.10;58.70
9482;DHT22;4779;48.062;11.672;2023-06-04T10:28:52;27.10;60.10
9482;DHT22;4779;48.062;11.672;2023-06-04T10:31:21;27.10;61.20
9482;DHT22;4779;48.062;11.672;2023-06-04T10:33:48;27.10;57.00
9482;DHT22;4779;48.062;11.672;2023-06-04T10:36:21;26.70;57.30
9482;DHT22;4779;48.062;11.672;2023-06-04T10:38:49;27.00;62.30
9482;DHT22;4779;48.062;11.672;2023-06-04T10:41:17;27.50;62.20
9482;DHT22;4779;48.062;11.672;2023-06-04T10:43:45;28.00;56.40
9482;DHT22;4779;48.062;11.672;2023-06-04T10:46:12;28.10;57.00
9482;DHT22;4779;48.062;11.672;2023-06-04T10:48:48;28.40;61.60
9482;DHT22;4779;48.062;11.672;2023-06-04T10:51:16;28.50;58.90
9482;DHT22;4779;48.062;11.672;2023-06-04T10:53:43;28.40;56.10
9482;DHT22;4779;48.062;11.672;2023-06-04T10:56:10;28.40;57.60
9482;DHT22;4779;48.062;11.672;2023-06-04T10:58:37;28.70;56.30
9482;DHT22;4779;48.062;11.672;2023-06-04T11:01:04;29.00;56.70
9482;DHT22;4779;48.062;11.672;2023-06-04T11:03:35;29.20;61.10
9482;DHT22;4779;48.062;11.672;2023-06-04T11:06:14;28.90;55.80
9482;DHT22;4779;48.062;11.672;2023-06-04T11:08:42;28.70;58.10
9482;DHT22;4779;48.062;11.672;2023-06-04T11:11:12;28.50;55.60
9482;DHT22;4779;48.062;11.672;2023-06-04T11:13:40;28.60;56.90
9482;DHT22;4779;48.062;11.672;2023-06-04T11:16:16;28.40;53.90
9482;DHT22;4779;48.062;11.672;2023-06-04T11:18:43;28.60;58.90
9482;DHT22;4779;48.062;11.672;2023-06-04T11:21:12;28.80;56.20
9482;DHT22;4779;48.062;11.672;2023-06-04T11:23:40;28.80;55.50
9482;DHT22;4779;48.062;11.672;2023-06-04T11:26:08;28.80;58.30
9482;DHT22;4779;48.062;11.672;2023-06-04T11:28:35;28.40;51.20
9482;DHT22;4779;48.062;11.672;2023-06-04T11:31:03;27.80;54.20
9482;DHT22;4779;48.062;11.672;2023-06-04T11:33:41;27.80;58.70
9482;DHT22;4779;48.062;11.672;2023-06-04T11:36:09;28.10;57.60
9482;DHT22;4779;48.062;11.672;2023-06-04T11:38:37;28.20;57.60
9482;DHT22;4779;48.062;11.672;2023-06-04T11:41:04;28.40;58.70
9482;DHT22;4779;48.062;11.672;2023-06-04T11:43:32;28.50;59.10
9482;DHT22;4779;48.062;11.672;2023-06-04T11:46:05;28.10;52.60
9482;DHT22;4779;48.062;11.672;2023-06-04T11:48:32;27.80;53.40
9482;DHT22;4779;48.062;11.672;2023-06-04T11:51:06;27.70;55.40
9482;DHT22;4779;48.062;11.672;2023-06-04T11:53:34;27.90;57.50
9482;DHT22;4779;48.062;11.672;2023-06-04T11:56:02;28.00;57.50
9482;DHT22;4779;48.062;11.672;2023-06-04T11:58:29;28.20;58.40
9482;DHT22;4779;48.062;11.672;2023-06-04T12:00:57;28.50;55.50
9482;DHT22;4779;48.062;11.672;2023-06-04T12:03:35;28.60;54.50
9482;DHT22;4779;48.062;11.672;2023-06-04T12:06:13;28.80;57.70
9482;DHT22;4779;48.062;11.672;2023-06-04T12:08:48;29.00;55.80
9482;DHT22;4779;48.062;11.672;2023-06-04T12:11:30;29.20;53.60
9482;DHT22;4779;48.062;11.672;2023-06-04T12:14:00;28.90;54.60
9482;DHT22;4779;48.062;11.672;2023-06-04T12:16:27;29.10;54.90
9482;DHT22;4779;48.062;11.672;2023-06-04T12:19:07;29.20;55.40
9482;DHT22;4779;48.062;11.672;2023-06-04T12:21:34;29.20;56.50
9482;DHT22;4779;48.062;11.672;2023-06-04T12:24:09;29.10;55.50
9482;DHT22;4779;48.062;11.672;2023-06-04T12:26:38;29.00;55.70
9482;DHT22;4779;48.062;11.672;2023-06-04T12:29:11;29.00;56.50
9482;DHT22;4779;48.062;11.672;2023-06-04T12:31:39;28.90;55.80
9482;DHT22;4779;48.062;11.672;2023-06-04T12:34:06;29.00;54.50
9482;DHT22;4779;48.062;11.672;2023-06-04T12:36:33;28.70;55.10
9482;DHT22;4779;48.062;11.672;2023-06-04T12:39:01;28.70;57.70
9482;DHT22;4779;48.062;11.672;2023-06-04T12:41:29;28.80;55.60
9482;DHT22;4779;48.062;11.672;2023-06-04T12:43:58;28.90;53.20
9482;DHT22;4779;48.062;11.672;2023-06-04T12:46:25;29.10;56.10
9482;DHT22;4779;48.062;11.672;2023-06-04T12:48:53;29.00;54.40
9482;DHT22;4779;48.062;11.672;2023-06-04T12:51:20;28.90;53.60
9482;DHT22;4779;48.062;11.672;2023-06-04T12:53:47;28.80;54.80
9482;DHT22;4779;48.062;11.672;2023-06-04T12:56:15;28.60;55.00
9482;DHT22;4779;48.062;11.672;2023-06-04T12:58:41;28.60;56.80
9482;DHT22;4779;48.062;11.672;2023-06-04T13:01:10;28.60;54.10
9482;DHT22;4779;48.062;11.672;2023-06-04T13:03:40;28.50;56.00
9482;DHT22;4779;48.062;11.672;2023-06-04T13:06:07;28.30;55.70
9482;DHT22;4779;48.062;11.672;2023-06-04T13:08:34;28.20;54.50
9482;DHT22;4779;48.062;11.672;2023-06-04T13:11:01;28.20;58.50
9482;DHT22;4779;48.062;11.672;2023-06-04T13:13:28;28.40;58.20
9482;DHT22;4779;48.062;11.672;2023-06-04T13:15:55;28.20;56.90
9482;DHT22;4779;48.062;11.672;2023-06-04T13:18:24;28.40;58.70
9482;DHT22;4779;48.062;11.672;2023-06-04T13:20:50;28.60;57.00
9482;DHT22;4779;48.062;11.672;2023-06-04T13:23:17;28.50;57.60
9482;DHT22;4779;48.062;11.672;2023-06-04T13:25:44;28.30;54.20
9482;DHT22;4779;48.062;11.672;2023-06-04T13:28:11;28.10;56.30
9482;DHT22;4779;48.062;11.672;2023-06-04T13:30:38;27.80;55.40
9482;DHT22;4779;48.062;11.672;2023-06-04T13:33:06;27.90;56.60
9482;DHT22;4779;48.062;11.672;2023-06-04T13:35:34;27.80;57.80
9482;DHT22;4779;48.062;11.672;2023-06-04T13:38:03;27.60;54.70
9482;DHT22;4779;48.062;11.672;2023-06-04T13:40:31;27.70;56.80
9482;DHT22;4779;48.062;11.672;2023-06-04T13:42:58;27.50;54.60
9482;DHT22;4779;48.062;11.672;2023-06-04T13:45:24;27.70;57.20
9482;DHT22;4779;48.062;11.672;2023-06-04T13:47:51;27.60;54.20
9482;DHT22;4779;48.062;11.672;2023-06-04T13:50:18;27.60;58.50
9482;DHT22;4779;48.062;11.672;2023-06-04T13:52:47;27.60;57.70
9482;DHT22;4779;48.062;11.672;2023-06-04T13:55:13;27.40;55.80
9482;DHT22;4779;48.062;11.672;2023-06-04T13:57:40;27.20;57.00
9482;DHT22;4779;48.062;11.672;2023-06-04T14:00:08;27.00;59.60
9482;DHT22;4779;48.062;11.672;2023-06-04T14:02:35;26.80;57.60
9482;DHT22;4779;48.062;11.672;2023-06-04T14:05:04;26.90;59.60
9482;DHT22;4779;48.062;11.672;2023-06-04T14:07:31;26.70;56.10
9482;DHT22;4779;48.062;11.672;2023-06-04T14:09:59;26.80;56.40
9482;DHT22;4779;48.062;11.672;2023-06-04T14:12:26;26.50;56.20
9482;DHT22;4779;48.062;11.672;2023-06-04T14:14:53;26.50;58.10
9482;DHT22;4779;48.062;11.672;2023-06-04T14:17:20;26.30;58.00
9482;DHT22;4779;48.062;11.672;2023-06-04T14:19:47;26.00;56.60
9482;DHT22;4779;48.062;11.672;2023-06-04T14:22:13;25.90;59.60
9482;DHT22;4779;48.062;11.672;2023-06-04T14:24:41;25.90;60.90
9482;DHT22;4779;48.062;11.672;2023-06-04T14:27:09;25.90;59.00
9482;DHT22;4779;48.062;11.672;2023-06-04T14:29:36;26.00;58.90
9482;DHT22;4779;48.062;11.672;2023-06-04T14:32:03;25.80;57.50
9482;DHT22;4779;48.062;11.672;2023-06-04T14:34:30;25.70;57.70
9482;DHT22;4779;48.062;11.672;2023-06-04T14:36:58;25.60;56.70
9482;DHT22;4779;48.062;11.672;2023-06-04T14:39:25;25.50;57.90
9482;DHT22;4779;48.062;11.672;2023-06-04T14:41:52;25.50;58.70
9482;DHT22;4779;48.062;11.672;2023-06-04T14:44:21;25.40;57.70
9482;DHT22;4779;48.062;11.672;2023-06-04T14:46:49;25.30;57.90
9482;DHT22;4779;48.062;11.672;2023-06-04T14:49:16;25.10;57.20
9482;DHT22;4779;48.062;11.672;2023-06-04T14:51:43;25.20;56.40
9482;DHT22;4779;48.062;11.672;2023-06-04T14:54:10;25.20;59.00
9482;DHT22;4779;48.062;11.672;2023-06-04T14:56:37;25.30;55.40
9482;DHT22;4779;48.062;11.672;2023-06-04T14:59:04;25.30;55.90
9482;DHT22;4779;48.062;11.672;2023-06-04T15:01:35;25.40;60.00
9482;DHT22;4779;48.062;11.672;2023-06-04T15:04:03;25.60;58.90
9482;DHT22;4779;48.062;11.672;2023-06-04T15:06:30;25.80;59.30
9482;DHT22;4779;48.062;11.672;2023-06-04T15:08:57;25.60;58.50
9482;DHT22;4779;48.062;11.672;2023-06-04T15:11:24;25.70;56.60
9482;DHT22;4779;48.062;11.672;2023-06-04T15:13:52;25.50;56.40
9482;DHT22;4779;48.062;11.672;2023-06-04T15:16:19;25.50;56.30
9482;DHT22;4779;48.062;11.672;2023-06-04T15:18:48;25.30;56.80
9482;DHT22;4779;48.062;11.672;2023-06-04T15:21:14;25.40;58.00
9482;DHT22;4779;48.062;11.672;2023-06-04T15:23:41;25.30;56.40
9482;DHT22;4779;48.062;11.672;2023-06-04T15:26:10;25.30;57.30
9482;DHT22;4779;48.062;11.672;2023-06-04T15:28:36;25.40;59.10
9482;DHT22;4779;48.062;11.672;2023-06-04T15:31:03;25.50;58.50
9482;DHT22;4779;48.062;11.672;2023-06-04T15:33:30;25.60;57.40
9482;DHT22;4779;48.062;11.672;2023-06-04T15:35:59;25.50;57.20
9482;DHT22;4779;48.062;11.672;2023-06-04T15:38:26;25.40;56.20
9482;DHT22;4779;48.062;11.672;2023-06-04T15:40:53;25.20;59.70
9482;DHT22;4779;48.062;11.672;2023-06-04T15:43:20;25.00;56.80
9482;DHT22;4779;48.062;11.672;2023-06-04T15:45:47;24.80;55.90
9482;DHT22;4779;48.062;11.672;2023-06-04T15:48:14;24.70;56.00
9482;DHT22;4779;48.062;11.672;2023-06-04T15:50:40;24.60;56.70